sensor_id;sensor_type;location;lat;lon;timestamp;P1;durP1;ratioP1;P2;durP2;ratioP2
41057;SDS011;27499;48.884;2.258;2022-08-18T00:01:45;11.38;;;10.68;;
41057;SDS011;27499;48.884;2.258;2022-08-18T00:04:16;11.63;;;11.00;;
41057;SDS011;27499;48.884;2.258;2022-08-18T00:09:29;10.70;;;10.00;;
41057;SDS011;27499;48.884;2.258;2022-08-18T00:11:59;13.68;;;10.70;;
41057;SDS011;27499;48.884;2.258;2022-08-18T00:14:28;11.10;;;10.30;;
41057;SDS011;27499;48.884;2.258;2022-08-18T00:16:55;11.55;;;10.75;;
41057;SDS011;27499;48.884;2.258;2022-08-18T00:19:23;11.13;;;10.45;;
41057;SDS011;27499;48.884;2.258;2022-08-18T00:22:11;11.05;;;10.25;;
41057;SDS011;27499;48.884;2.258;2022-08-18T00:24:42;10.80;;;9.90;;
41057;SDS011;27499;48.884;2.258;2022-08-18T00:27:15;10.77;;;10.00;;
41057;SDS011;27499;48.884;2.258;2022-08-18T00:29:49;10.40;;;9.60;;
41057;SDS011;27499;48.884;2.258;2022-08-18T00:32:25;10.52;;;9.80;;
41057;SDS011;27499;48.884;2.258;2022-08-18T00:34:55;10.82;;;9.88;;
41057;SDS011;27499;48.884;2.258;2022-08-18T00:37:22;11.05;;;10.38;;
41057;SDS011;27499;48.884;2.258;2022-08-18T00:39:50;11.10;;;10.07;;
41057;SDS011;27499;48.884;2.258;2022-08-18T00:42:20;10.65;;;9.88;;
41057;SDS011;27499;48.884;2.258;2022-08-18T00:44:55;10.63;;;9.73;;
41057;SDS011;27499;48.884;2.258;2022-08-18T00:47:23;11.20;;;10.13;;
41057;SDS011;27499;48.884;2.258;2022-08-18T00:50:15;9.68;;;9.07;;
41057;SDS011;27499;48.884;2.258;2022-08-18T00:52:52;10.93;;;9.80;;
41057;SDS011;27499;48.884;2.258;2022-08-18T00:55:24;11.38;;;10.63;;
41057;SDS011;27499;48.884;2.258;2022-08-18T00:57:53;10.65;;;9.95;;
41057;SDS011;27499;48.884;2.258;2022-08-18T01:00:26;10.77;;;9.98;;
41057;SDS011;27499;48.884;2.258;2022-08-18T01:02:55;10.90;;;10.30;;
41057;SDS011;27499;48.884;2.258;2022-08-18T01:05:37;11.32;;;10.52;;
41057;SDS011;27499;48.884;2.258;2022-08-18T01:08:16;11.50;;;10.80;;
41057;SDS011;27499;48.884;2.258;2022-08-18T01:10:54;10.90;;;10.20;;
41057;SDS011;27499;48.884;2.258;2022-08-18T01:13:26;13.13;;;12.25;;
41057;SDS011;27499;48.884;2.258;2022-08-18T01:15:56;12.15;;;11.35;;
41057;SDS011;27499;48.884;2.258;2022-08-18T01:18:23;12.40;;;11.68;;
41057;SDS011;27499;48.884;2.258;2022-08-18T01:21:11;12.65;;;11.75;;
41057;SDS011;27499;48.884;2.258;2022-08-18T01:24:03;11.90;;;11.20;;
41057;SDS011;27499;48.884;2.258;2022-08-18T01:26:34;13.32;;;12.60;;
41057;SDS011;27499;48.884;2.258;2022-08-18T01:29:11;14.38;;;13.48;;
41057;SDS011;27499;48.884;2.258;2022-08-18T01:31:49;14.32;;;13.25;;
41057;SDS011;27499;48.884;2.258;2022-08-18T01:34:23;13.68;;;12.98;;
41057;SDS011;27499;48.884;2.258;2022-08-18T01:36:53;15.93;;;14.80;;
41057;SDS011;27499;48.884;2.258;2022-08-18T01:39:22;13.93;;;13.07;;
41057;SDS011;27499;48.884;2.258;2022-08-18T01:42:09;14.57;;;13.68;;
41057;SDS011;27499;48.884;2.258;2022-08-18T01:44:38;15.63;;;14.63;;
41057;SDS011;27499;48.884;2.258;2022-08-18T01:47:07;16.08;;;15.05;;
41057;SDS011;27499;48.884;2.258;2022-08-18T01:49:37;15.05;;;14.20;;
41057;SDS011;27499;48.884;2.258;2022-08-18T01:52:05;15.32;;;14.43;;
41057;SDS011;27499;48.884;2.258;2022-08-18T01:54:32;14.40;;;13.55;;
41057;SDS011;27499;48.884;2.258;2022-08-18T01:57:00;15.27;;;14.30;;
41057;SDS011;27499;48.884;2.258;2022-08-18T01:59:27;15.15;;;14.25;;
41057;SDS011;27499;48.884;2.258;2022-08-18T02:01:54;14.55;;;13.75;;
41057;SDS011;27499;48.884;2.258;2022-08-18T02:04:23;14.93;;;13.93;;
41057;SDS011;27499;48.884;2.258;2022-08-18T02:07:04;14.60;;;13.57;;
41057;SDS011;27499;48.884;2.258;2022-08-18T02:09:34;12.43;;;11.73;;
41057;SDS011;27499;48.884;2.258;2022-08-18T02:12:02;11.38;;;10.68;;
41057;SDS011;27499;48.884;2.258;2022-08-18T02:14:31;10.63;;;9.93;;
41057;SDS011;27499;48.884;2.258;2022-08-18T02:16:59;10.52;;;9.70;;
41057;SDS011;27499;48.884;2.258;2022-08-18T02:19:34;9.45;;;8.75;;
41057;SDS011;27499;48.884;2.258;2022-08-18T02:22:04;9.65;;;8.95;;
41057;SDS011;27499;48.884;2.258;2022-08-18T02:24:32;9.77;;;9.18;;
41057;SDS011;27499;48.884;2.258;2022-08-18T02:26:59;10.73;;;9.85;;
41057;SDS011;27499;48.884;2.258;2022-08-18T02:29:26;9.93;;;9.13;;
41057;SDS011;27499;48.884;2.258;2022-08-18T02:31:53;9.27;;;8.65;;
41057;SDS011;27499;48.884;2.258;2022-08-18T02:34:20;8.75;;;8.05;;
41057;SDS011;27499;48.884;2.258;2022-08-18T02:36:47;9.00;;;8.45;;
41057;SDS011;27499;48.884;2.258;2022-08-18T02:39:14;8.82;;;8.10;;
41057;SDS011;27499;48.884;2.258;2022-08-18T02:41:41;8.73;;;8.02;;
41057;SDS011;27499;48.884;2.258;2022-08-18T02:44:08;8.98;;;8.27;;
41057;SDS011;27499;48.884;2.258;2022-08-18T02:46:36;8.65;;;8.15;;
41057;SDS011;27499;48.884;2.258;2022-08-18T02:49:04;8.75;;;8.15;;
41057;SDS011;27499;48.884;2.258;2022-08-18T02:51:33;8.90;;;8.35;;
41057;SDS011;27499;48.884;2.258;2022-08-18T02:54:01;8.98;;;8.45;;
41057;SDS011;27499;48.884;2.258;2022-08-18T02:56:29;8.75;;;8.18;;
41057;SDS011;27499;48.884;2.258;2022-08-18T02:59:14;8.32;;;7.72;;
41057;SDS011;27499;48.884;2.258;2022-08-18T03:01:46;9.85;;;8.18;;
41057;SDS011;27499;48.884;2.258;2022-08-18T03:04:15;9.15;;;8.55;;
41057;SDS011;27499;48.884;2.258;2022-08-18T03:06:54;8.38;;;7.78;;
41057;SDS011;27499;48.884;2.258;2022-08-18T03:09:22;9.00;;;8.40;;
41057;SDS011;27499;48.884;2.258;2022-08-18T03:11:49;9.40;;;8.70;;
41057;SDS011;27499;48.884;2.258;2022-08-18T03:14:18;8.65;;;8.05;;
41057;SDS011;27499;48.884;2.258;2022-08-18T03:16:46;8.73;;;8.13;;
41057;SDS011;27499;48.884;2.258;2022-08-18T03:19:26;9.60;;;8.80;;
41057;SDS011;27499;48.884;2.258;2022-08-18T03:21:55;8.65;;;7.85;;
41057;SDS011;27499;48.884;2.258;2022-08-18T03:24:28;9.25;;;8.48;;
41057;SDS011;27499;48.884;2.258;2022-08-18T03:26:58;9.43;;;8.82;;
41057;SDS011;27499;48.884;2.258;2022-08-18T03:29:26;8.52;;;8.02;;
41057;SDS011;27499;48.884;2.258;2022-08-18T03:31:58;9.13;;;8.43;;
41057;SDS011;27499;48.884;2.258;2022-08-18T03:34:30;9.25;;;8.55;;
41057;SDS011;27499;48.884;2.258;2022-08-18T03:36:57;9.02;;;8.43;;
41057;SDS011;27499;48.884;2.258;2022-08-18T03:39:25;9.70;;;9.10;;
41057;SDS011;27499;48.884;2.258;2022-08-18T03:41:53;9.73;;;9.13;;
41057;SDS011;27499;48.884;2.258;2022-08-18T03:44:27;8.85;;;8.35;;
41057;SDS011;27499;48.884;2.258;2022-08-18T03:46:56;9.07;;;8.55;;
41057;SDS011;27499;48.884;2.258;2022-08-18T03:49:24;9.75;;;9.02;;
41057;SDS011;27499;48.884;2.258;2022-08-18T03:51:52;8.55;;;8.05;;
41057;SDS011;27499;48.884;2.258;2022-08-18T03:54:19;9.25;;;8.65;;
41057;SDS011;27499;48.884;2.258;2022-08-18T03:56:47;9.10;;;8.60;;
41057;SDS011;27499;48.884;2.258;2022-08-18T03:59:16;9.23;;;8.63;;
41057;SDS011;27499;48.884;2.258;2022-08-18T04:01:46;8.23;;;7.72;;
41057;SDS011;27499;48.884;2.258;2022-08-18T04:04:16;9.73;;;9.02;;
41057;SDS011;27499;48.884;2.258;2022-08-18T04:06:47;8.73;;;8.13;;
41057;SDS011;27499;48.884;2.258;2022-08-18T04:09:20;9.65;;;8.90;;
41057;SDS011;27499;48.884;2.258;2022-08-18T04:11:50;9.23;;;8.57;;
41057;SDS011;27499;48.884;2.258;2022-08-18T04:14:18;9.93;;;9.23;;
41057;SDS011;27499;48.884;2.258;2022-08-18T04:16:49;9.43;;;8.82;;
41057;SDS011;27499;48.884;2.258;2022-08-18T04:19:17;8.93;;;8.32;;
41057;SDS011;27499;48.884;2.258;2022-08-18T04:21:52;9.23;;;8.52;;
41057;SDS011;27499;48.884;2.258;2022-08-18T04:24:20;9.07;;;8.38;;
41057;SDS011;27499;48.884;2.258;2022-08-18T04:26:47;8.25;;;7.70;;
41057;SDS011;27499;48.884;2.258;2022-08-18T04:29:16;9.00;;;8.40;;
41057;SDS011;27499;48.884;2.258;2022-08-18T04:31:46;9.68;;;9.07;;
41057;SDS011;27499;48.884;2.258;2022-08-18T04:34:14;9.23;;;8.68;;
41057;SDS011;27499;48.884;2.258;2022-08-18T04:36:41;9.77;;;9.07;;
41057;SDS011;27499;48.884;2.258;2022-08-18T04:39:09;8.95;;;8.35;;
41057;SDS011;27499;48.884;2.258;2022-08-18T04:41:38;9.32;;;8.70;;
41057;SDS011;27499;48.884;2.258;2022-08-18T04:44:07;9.82;;;9.02;;
41057;SDS011;27499;48.884;2.258;2022-08-18T04:46:36;9.32;;;8.63;;
41057;SDS011;27499;48.884;2.258;2022-08-18T04:49:05;11.05;;;8.73;;
41057;SDS011;27499;48.884;2.258;2022-08-18T04:51:34;8.40;;;7.78;;
41057;SDS011;27499;48.884;2.258;2022-08-18T04:54:22;9.10;;;8.40;;
41057;SDS011;27499;48.884;2.258;2022-08-18T04:56:50;9.05;;;8.40;;
41057;SDS011;27499;48.884;2.258;2022-08-18T04:59:17;9.35;;;8.75;;
41057;SDS011;27499;48.884;2.258;2022-08-18T05:01:44;8.40;;;7.70;;
41057;SDS011;27499;48.884;2.258;2022-08-18T05:04:14;9.90;;;9.13;;
41057;SDS011;27499;48.884;2.258;2022-08-18T05:06:43;9.90;;;8.98;;
41057;SDS011;27499;48.884;2.258;2022-08-18T05:09:12;9.38;;;8.68;;
41057;SDS011;27499;48.884;2.258;2022-08-18T05:11:47;8.90;;;8.30;;
41057;SDS011;27499;48.884;2.258;2022-08-18T05:14:16;9.32;;;8.70;;
41057;SDS011;27499;48.884;2.258;2022-08-18T05:16:43;9.07;;;8.48;;
41057;SDS011;27499;48.884;2.258;2022-08-18T05:19:15;9.48;;;8.77;;
41057;SDS011;27499;48.884;2.258;2022-08-18T05:21:51;8.45;;;7.85;;
41057;SDS011;27499;48.884;2.258;2022-08-18T05:24:26;9.82;;;9.13;;
41057;SDS011;27499;48.884;2.258;2022-08-18T05:27:02;9.80;;;9.02;;
41057;SDS011;27499;48.884;2.258;2022-08-18T05:29:30;9.45;;;8.82;;
41057;SDS011;27499;48.884;2.258;2022-08-18T05:32:12;9.40;;;8.45;;
41057;SDS011;27499;48.884;2.258;2022-08-18T05:35:06;9.57;;;8.85;;
41057;SDS011;27499;48.884;2.258;2022-08-18T05:37:56;9.02;;;8.32;;
41057;SDS011;27499;48.884;2.258;2022-08-18T05:40:27;9.73;;;9.02;;
41057;SDS011;27499;48.884;2.258;2022-08-18T05:42:57;10.45;;;9.65;;
41057;SDS011;27499;48.884;2.258;2022-08-18T05:45:25;10.02;;;9.18;;
41057;SDS011;27499;48.884;2.258;2022-08-18T05:47:56;9.20;;;8.38;;
41057;SDS011;27499;48.884;2.258;2022-08-18T05:50:27;9.60;;;8.88;;
41057;SDS011;27499;48.884;2.258;2022-08-18T05:53:06;10.07;;;8.95;;
41057;SDS011;27499;48.884;2.258;2022-08-18T05:58:29;10.30;;;9.40;;
41057;SDS011;27499;48.884;2.258;2022-08-18T06:01:04;9.27;;;8.45;;
41057;SDS011;27499;48.884;2.258;2022-08-18T06:03:48;9.65;;;8.45;;
41057;SDS011;27499;48.884;2.258;2022-08-18T06:06:24;10.32;;;8.93;;
41057;SDS011;27499;48.884;2.258;2022-08-18T06:09:12;8.65;;;7.95;;
41057;SDS011;27499;48.884;2.258;2022-08-18T06:11:44;11.63;;;10.43;;
41057;SDS011;27499;48.884;2.258;2022-08-18T06:14:12;9.00;;;8.02;;
41057;SDS011;27499;48.884;2.258;2022-08-18T06:19:54;9.43;;;8.63;;
41057;SDS011;27499;48.884;2.258;2022-08-18T06:22:36;12.23;;;9.07;;
41057;SDS011;27499;48.884;2.258;2022-08-18T06:25:41;8.80;;;8.20;;
41057;SDS011;27499;48.884;2.258;2022-08-18T06:28:46;9.18;;;8.48;;
41057;SDS011;27499;48.884;2.258;2022-08-18T06:39:19;9.87;;;8.77;;
41057;SDS011;27499;48.884;2.258;2022-08-18T06:41:54;10.73;;;9.90;;
41057;SDS011;27499;48.884;2.258;2022-08-18T06:44:28;11.23;;;10.43;;
41057;SDS011;27499;48.884;2.258;2022-08-18T06:47:08;12.82;;;11.63;;
41057;SDS011;27499;48.884;2.258;2022-08-18T06:49:51;15.35;;;13.48;;
41057;SDS011;27499;48.884;2.258;2022-08-18T06:52:58;14.25;;;12.95;;
41057;SDS011;27499;48.884;2.258;2022-08-18T06:55:32;13.55;;;12.25;;
41057;SDS011;27499;48.884;2.258;2022-08-18T06:58:04;15.30;;;13.98;;
41057;SDS011;27499;48.884;2.258;2022-08-18T07:01:08;16.55;;;14.88;;
41057;SDS011;27499;48.884;2.258;2022-08-18T07:03:42;14.77;;;13.35;;
41057;SDS011;27499;48.884;2.258;2022-08-18T07:09:33;14.32;;;13.00;;
41057;SDS011;27499;48.884;2.258;2022-08-18T07:12:05;16.98;;;15.38;;
41057;SDS011;27499;48.884;2.258;2022-08-18T07:14:41;15.88;;;14.35;;
41057;SDS011;27499;48.884;2.258;2022-08-18T07:17:18;15.73;;;14.40;;
41057;SDS011;27499;48.884;2.258;2022-08-18T07:20:16;16.00;;;14.48;;
41057;SDS011;27499;48.884;2.258;2022-08-18T07:22:57;14.55;;;13.30;;
41057;SDS011;27499;48.884;2.258;2022-08-18T07:25:30;14.07;;;12.85;;
41057;SDS011;27499;48.884;2.258;2022-08-18T07:28:03;15.48;;;13.45;;
41057;SDS011;27499;48.884;2.258;2022-08-18T07:30:34;16.48;;;14.02;;
41057;SDS011;27499;48.884;2.258;2022-08-18T07:33:15;15.18;;;13.70;;
41057;SDS011;27499;48.884;2.258;2022-08-18T07:35:51;13.73;;;12.50;;
41057;SDS011;27499;48.884;2.258;2022-08-18T07:38:29;16.63;;;14.77;;
41057;SDS011;27499;48.884;2.258;2022-08-18T07:49:21;15.93;;;14.40;;
41057;SDS011;27499;48.884;2.258;2022-08-18T07:52:01;16.65;;;15.05;;
41057;SDS011;27499;48.884;2.258;2022-08-18T07:57:43;14.82;;;13.52;;
41057;SDS011;27499;48.884;2.258;2022-08-18T08:05:55;16.65;;;15.05;;
41057;SDS011;27499;48.884;2.258;2022-08-18T08:08:34;15.52;;;14.27;;
41057;SDS011;27499;48.884;2.258;2022-08-18T08:16:49;16.42;;;14.98;;
41057;SDS011;27499;48.884;2.258;2022-08-18T08:19:48;14.68;;;13.63;;
41057;SDS011;27499;48.884;2.258;2022-08-18T08:25:05;19.58;;;18.17;;
41057;SDS011;27499;48.884;2.258;2022-08-18T08:30:36;24.55;;;22.70;;
41057;SDS011;27499;48.884;2.258;2022-08-18T08:33:25;21.48;;;20.02;;
41057;SDS011;27499;48.884;2.258;2022-08-18T08:35:57;23.27;;;21.67;;
41057;SDS011;27499;48.884;2.258;2022-08-18T08:38:44;23.20;;;21.42;;
41057;SDS011;27499;48.884;2.258;2022-08-18T08:41:17;21.83;;;20.33;;
41057;SDS011;27499;48.884;2.258;2022-08-18T08:43:53;22.58;;;20.95;;
41057;SDS011;27499;48.884;2.258;2022-08-18T08:49:22;21.27;;;19.38;;
41057;SDS011;27499;48.884;2.258;2022-08-18T08:52:04;17.48;;;15.70;;
41057;SDS011;27499;48.884;2.258;2022-08-18T08:57:15;15.98;;;14.55;;
41057;SDS011;27499;48.884;2.258;2022-08-18T08:59:43;16.10;;;14.80;;
41057;SDS011;27499;48.884;2.258;2022-08-18T09:02:29;15.07;;;13.68;;
41057;SDS011;27499;48.884;2.258;2022-08-18T09:05:19;13.55;;;12.55;;
41057;SDS011;27499;48.884;2.258;2022-08-18T09:11:19;14.77;;;13.50;;
41057;SDS011;27499;48.884;2.258;2022-08-18T09:14:03;14.17;;;12.90;;
41057;SDS011;27499;48.884;2.258;2022-08-18T09:25:31;14.90;;;13.40;;
41057;SDS011;27499;48.884;2.258;2022-08-18T09:28:11;14.57;;;13.18;;
41057;SDS011;27499;48.884;2.258;2022-08-18T09:39:49;15.00;;;13.80;;
41057;SDS011;27499;48.884;2.258;2022-08-18T09:42:27;15.82;;;14.73;;
41057;SDS011;27499;48.884;2.258;2022-08-18T09:48:21;18.65;;;17.38;;
41057;SDS011;27499;48.884;2.258;2022-08-18T09:56:14;17.63;;;16.35;;
41057;SDS011;27499;48.884;2.258;2022-08-18T09:59:03;17.33;;;16.13;;
41057;SDS011;27499;48.884;2.258;2022-08-18T10:01:37;16.38;;;15.23;;
41057;SDS011;27499;48.884;2.258;2022-08-18T10:04:23;17.77;;;16.17;;
41057;SDS011;27499;48.884;2.258;2022-08-18T10:09:50;13.95;;;13.05;;
41057;SDS011;27499;48.884;2.258;2022-08-18T10:17:40;12.65;;;11.50;;
41057;SDS011;27499;48.884;2.258;2022-08-18T10:20:37;9.95;;;9.00;;
41057;SDS011;27499;48.884;2.258;2022-08-18T10:23:07;10.93;;;9.63;;
41057;SDS011;27499;48.884;2.258;2022-08-18T10:25:43;10.85;;;9.85;;
41057;SDS011;27499;48.884;2.258;2022-08-18T10:31:17;9.60;;;8.60;;
41057;SDS011;27499;48.884;2.258;2022-08-18T10:36:50;10.05;;;9.15;;
41057;SDS011;27499;48.884;2.258;2022-08-18T10:45:09;9.07;;;8.15;;
41057;SDS011;27499;48.884;2.258;2022-08-18T10:53:58;7.45;;;6.68;;
41057;SDS011;27499;48.884;2.258;2022-08-18T10:56:45;11.10;;;8.60;;
41057;SDS011;27499;48.884;2.258;2022-08-18T10:59:18;8.32;;;7.53;;
41057;SDS011;27499;48.884;2.258;2022-08-18T11:04:40;7.20;;;6.32;;
41057;SDS011;27499;48.884;2.258;2022-08-18T11:07:25;6.25;;;5.75;;
41057;SDS011;27499;48.884;2.258;2022-08-18T11:09:59;6.72;;;5.57;;
41057;SDS011;27499;48.884;2.258;2022-08-18T11:12:58;8.13;;;6.07;;
41057;SDS011;27499;48.884;2.258;2022-08-18T11:15:40;8.48;;;5.90;;
41057;SDS011;27499;48.884;2.258;2022-08-18T11:26:51;7.00;;;6.28;;
41057;SDS011;27499;48.884;2.258;2022-08-18T11:34:59;5.70;;;5.18;;
41057;SDS011;27499;48.884;2.258;2022-08-18T11:43:25;7.30;;;5.22;;
41057;SDS011;27499;48.884;2.258;2022-08-18T11:46:28;5.75;;;5.13;;
41057;SDS011;27499;48.884;2.258;2022-08-18T11:49:11;5.70;;;5.15;;
41057;SDS011;27499;48.884;2.258;2022-08-18T11:51:55;8.63;;;6.53;;
41057;SDS011;27499;48.884;2.258;2022-08-18T11:54:34;6.38;;;5.78;;
41057;SDS011;27499;48.884;2.258;2022-08-18T12:05:52;6.35;;;5.78;;
41057;SDS011;27499;48.884;2.258;2022-08-18T12:08:27;6.90;;;6.30;;
41057;SDS011;27499;48.884;2.258;2022-08-18T12:11:23;7.45;;;5.93;;
41057;SDS011;27499;48.884;2.258;2022-08-18T12:14:00;7.50;;;6.80;;
41057;SDS011;27499;48.884;2.258;2022-08-18T12:16:50;8.30;;;7.30;;
41057;SDS011;27499;48.884;2.258;2022-08-18T12:19:19;6.38;;;5.80;;
41057;SDS011;27499;48.884;2.258;2022-08-18T12:21:53;6.25;;;5.75;;
41057;SDS011;27499;48.884;2.258;2022-08-18T12:24:24;6.60;;;5.95;;
41057;SDS011;27499;48.884;2.258;2022-08-18T12:27:04;6.50;;;5.90;;
41057;SDS011;27499;48.884;2.258;2022-08-18T12:29:46;6.00;;;5.40;;
41057;SDS011;27499;48.884;2.258;2022-08-18T12:32:15;5.53;;;5.13;;
41057;SDS011;27499;48.884;2.258;2022-08-18T12:35:02;6.32;;;5.82;;
41057;SDS011;27499;48.884;2.258;2022-08-18T12:37:35;6.15;;;5.65;;
41057;SDS011;27499;48.884;2.258;2022-08-18T12:40:23;6.47;;;5.88;;
41057;SDS011;27499;48.884;2.258;2022-08-18T12:42:51;5.80;;;5.40;;
41057;SDS011;27499;48.884;2.258;2022-08-18T12:45:21;5.70;;;5.30;;
41057;SDS011;27499;48.884;2.258;2022-08-18T12:47:49;10.50;;;6.20;;
41057;SDS011;27499;48.884;2.258;2022-08-18T12:50:18;5.90;;;5.43;;
41057;SDS011;27499;48.884;2.258;2022-08-18T12:52:56;7.10;;;6.43;;
41057;SDS011;27499;48.884;2.258;2022-08-18T12:55:23;6.85;;;5.60;;
41057;SDS011;27499;48.884;2.258;2022-08-18T12:57:50;7.93;;;5.65;;
41057;SDS011;27499;48.884;2.258;2022-08-18T13:00:19;10.48;;;6.00;;
41057;SDS011;27499;48.884;2.258;2022-08-18T13:02:55;7.60;;;5.13;;
41057;SDS011;27499;48.884;2.258;2022-08-18T13:05:22;6.07;;;5.47;;
41057;SDS011;27499;48.884;2.258;2022-08-18T13:07:59;5.78;;;5.20;;
41057;SDS011;27499;48.884;2.258;2022-08-18T13:10:30;5.95;;;5.45;;
41057;SDS011;27499;48.884;2.258;2022-08-18T13:13:11;5.63;;;5.22;;
41057;SDS011;27499;48.884;2.258;2022-08-18T13:15:39;8.02;;;6.63;;
41057;SDS011;27499;48.884;2.258;2022-08-18T13:18:23;12.35;;;6.85;;
41057;SDS011;27499;48.884;2.258;2022-08-18T13:20:55;16.02;;;5.90;;
41057;SDS011;27499;48.884;2.258;2022-08-18T13:23:26;5.57;;;5.13;;
41057;SDS011;27499;48.884;2.258;2022-08-18T13:25:54;6.35;;;5.88;;
41057;SDS011;27499;48.884;2.258;2022-08-18T13:28:27;5.65;;;5.25;;
41057;SDS011;27499;48.884;2.258;2022-08-18T13:31:01;6.18;;;5.68;;
41057;SDS011;27499;48.884;2.258;2022-08-18T13:33:30;5.38;;;5.05;;
41057;SDS011;27499;48.884;2.258;2022-08-18T13:36:18;6.53;;;6.03;;
41057;SDS011;27499;48.884;2.258;2022-08-18T13:38:48;7.70;;;7.18;;
41057;SDS011;27499;48.884;2.258;2022-08-18T13:41:20;7.50;;;6.82;;
41057;SDS011;27499;48.884;2.258;2022-08-18T13:43:49;7.85;;;7.15;;
41057;SDS011;27499;48.884;2.258;2022-08-18T13:46:17;7.70;;;7.13;;
41057;SDS011;27499;48.884;2.258;2022-08-18T13:48:56;7.45;;;6.95;;
41057;SDS011;27499;48.884;2.258;2022-08-18T13:51:28;7.80;;;7.30;;
41057;SDS011;27499;48.884;2.258;2022-08-18T13:53:56;6.78;;;6.20;;
41057;SDS011;27499;48.884;2.258;2022-08-18T13:56:43;7.38;;;6.53;;
41057;SDS011;27499;48.884;2.258;2022-08-18T13:59:17;8.00;;;7.50;;
41057;SDS011;27499;48.884;2.258;2022-08-18T14:01:48;6.85;;;6.30;;
41057;SDS011;27499;48.884;2.258;2022-08-18T14:04:18;7.85;;;7.30;;
41057;SDS011;27499;48.884;2.258;2022-08-18T14:06:51;7.65;;;7.15;;
41057;SDS011;27499;48.884;2.258;2022-08-18T14:09:23;8.32;;;7.82;;
41057;SDS011;27499;48.884;2.258;2022-08-18T14:12:03;7.60;;;7.10;;
41057;SDS011;27499;48.884;2.258;2022-08-18T14:14:52;7.93;;;7.32;;
41057;SDS011;27499;48.884;2.258;2022-08-18T14:17:22;8.25;;;7.75;;
41057;SDS011;27499;48.884;2.258;2022-08-18T14:19:50;7.90;;;7.40;;
41057;SDS011;27499;48.884;2.258;2022-08-18T14:22:48;9.18;;;8.50;;
41057;SDS011;27499;48.884;2.258;2022-08-18T14:25:38;8.02;;;7.53;;
41057;SDS011;27499;48.884;2.258;2022-08-18T14:28:25;8.85;;;8.23;;
41057;SDS011;27499;48.884;2.258;2022-08-18T14:30:53;9.13;;;8.38;;
41057;SDS011;27499;48.884;2.258;2022-08-18T14:33:23;9.00;;;8.43;;
41057;SDS011;27499;48.884;2.258;2022-08-18T14:36:11;9.48;;;8.57;;
41057;SDS011;27499;48.884;2.258;2022-08-18T14:38:40;9.05;;;8.45;;
41057;SDS011;27499;48.884;2.258;2022-08-18T14:41:09;9.63;;;8.93;;
41057;SDS011;27499;48.884;2.258;2022-08-18T14:43:38;10.20;;;9.25;;
41057;SDS011;27499;48.884;2.258;2022-08-18T14:46:26;9.70;;;9.00;;
41057;SDS011;27499;48.884;2.258;2022-08-18T14:48:58;9.27;;;8.40;;
41057;SDS011;27499;48.884;2.258;2022-08-18T14:51:29;7.25;;;6.75;;
41057;SDS011;27499;48.884;2.258;2022-08-18T14:53:58;9.70;;;9.02;;
41057;SDS011;27499;48.884;2.258;2022-08-18T14:56:27;7.85;;;7.45;;
41057;SDS011;27499;48.884;2.258;2022-08-18T14:58:58;7.53;;;7.00;;
41057;SDS011;27499;48.884;2.258;2022-08-18T15:01:25;6.22;;;5.82;;
41057;SDS011;27499;48.884;2.258;2022-08-18T15:04:00;6.80;;;6.30;;
41057;SDS011;27499;48.884;2.258;2022-08-18T15:06:44;8.05;;;7.55;;
41057;SDS011;27499;48.884;2.258;2022-08-18T15:09:23;7.28;;;6.78;;
41057;SDS011;27499;48.884;2.258;2022-08-18T15:11:53;9.23;;;8.48;;
41057;SDS011;27499;48.884;2.258;2022-08-18T15:14:22;8.57;;;7.88;;
41057;SDS011;27499;48.884;2.258;2022-08-18T15:16:58;8.85;;;8.13;;
41057;SDS011;27499;48.884;2.258;2022-08-18T15:19:26;8.07;;;7.30;;
41057;SDS011;27499;48.884;2.258;2022-08-18T15:22:13;9.88;;;9.15;;
41057;SDS011;27499;48.884;2.258;2022-08-18T15:24:58;9.27;;;8.68;;
41057;SDS011;27499;48.884;2.258;2022-08-18T15:27:49;9.43;;;8.82;;
41057;SDS011;27499;48.884;2.258;2022-08-18T15:30:18;10.23;;;9.60;;
41057;SDS011;27499;48.884;2.258;2022-08-18T15:32:46;10.35;;;9.63;;
41057;SDS011;27499;48.884;2.258;2022-08-18T15:35:15;10.02;;;9.43;;
41057;SDS011;27499;48.884;2.258;2022-08-18T15:37:45;9.68;;;8.93;;
41057;SDS011;27499;48.884;2.258;2022-08-18T15:40:17;9.80;;;9.20;;
41057;SDS011;27499;48.884;2.258;2022-08-18T15:43:01;7.43;;;6.93;;
41057;SDS011;27499;48.884;2.258;2022-08-18T15:45:36;7.53;;;6.93;;
41057;SDS011;27499;48.884;2.258;2022-08-18T15:48:22;5.70;;;5.30;;
41057;SDS011;27499;48.884;2.258;2022-08-18T15:50:50;5.22;;;4.72;;
41057;SDS011;27499;48.884;2.258;2022-08-18T15:53:19;5.25;;;4.85;;
41057;SDS011;27499;48.884;2.258;2022-08-18T15:55:55;5.68;;;5.28;;
41057;SDS011;27499;48.884;2.258;2022-08-18T15:58:22;7.63;;;6.00;;
41057;SDS011;27499;48.884;2.258;2022-08-18T16:00:53;6.78;;;5.70;;
41057;SDS011;27499;48.884;2.258;2022-08-18T16:03:20;4.80;;;4.47;;
41057;SDS011;27499;48.884;2.258;2022-08-18T16:05:51;5.63;;;4.57;;
41057;SDS011;27499;48.884;2.258;2022-08-18T16:08:21;4.40;;;4.10;;
41057;SDS011;27499;48.884;2.258;2022-08-18T16:10:50;4.95;;;4.57;;
41057;SDS011;27499;48.884;2.258;2022-08-18T16:13:19;4.93;;;4.60;;
41057;SDS011;27499;48.884;2.258;2022-08-18T16:15:47;4.88;;;4.10;;
41057;SDS011;27499;48.884;2.258;2022-08-18T16:18:16;3.92;;;3.53;;
41057;SDS011;27499;48.884;2.258;2022-08-18T16:20:44;4.10;;;3.72;;
41057;SDS011;27499;48.884;2.258;2022-08-18T16:23:11;4.20;;;3.90;;
41057;SDS011;27499;48.884;2.258;2022-08-18T16:25:39;5.30;;;3.35;;
41057;SDS011;27499;48.884;2.258;2022-08-18T16:28:08;4.10;;;3.80;;
41057;SDS011;27499;48.884;2.258;2022-08-18T16:30:35;4.45;;;4.15;;
41057;SDS011;27499;48.884;2.258;2022-08-18T16:33:03;4.63;;;4.22;;
41057;SDS011;27499;48.884;2.258;2022-08-18T16:35:32;4.80;;;3.72;;
41057;SDS011;27499;48.884;2.258;2022-08-18T16:38:04;4.60;;;3.30;;
41057;SDS011;27499;48.884;2.258;2022-08-18T16:40:34;4.80;;;4.40;;
41057;SDS011;27499;48.884;2.258;2022-08-18T16:43:01;5.05;;;4.75;;
41057;SDS011;27499;48.884;2.258;2022-08-18T16:45:30;5.63;;;4.30;;
41057;SDS011;27499;48.884;2.258;2022-08-18T16:47:58;4.78;;;4.38;;
41057;SDS011;27499;48.884;2.258;2022-08-18T16:50:26;5.30;;;4.90;;
41057;SDS011;27499;48.884;2.258;2022-08-18T16:52:53;7.88;;;7.38;;
41057;SDS011;27499;48.884;2.258;2022-08-18T16:55:20;8.27;;;7.75;;
41057;SDS011;27499;48.884;2.258;2022-08-18T16:57:47;6.60;;;6.00;;
41057;SDS011;27499;48.884;2.258;2022-08-18T17:00:33;6.68;;;4.90;;
41057;SDS011;27499;48.884;2.258;2022-08-18T17:03:44;5.22;;;4.72;;
41057;SDS011;27499;48.884;2.258;2022-08-18T17:06:39;7.07;;;5.43;;
41057;SDS011;27499;48.884;2.258;2022-08-18T17:09:13;6.77;;;6.17;;
41057;SDS011;27499;48.884;2.258;2022-08-18T17:11:40;9.15;;;8.65;;
41057;SDS011;27499;48.884;2.258;2022-08-18T17:14:17;9.05;;;8.45;;
41057;SDS011;27499;48.884;2.258;2022-08-18T17:16:49;10.10;;;9.30;;
41057;SDS011;27499;48.884;2.258;2022-08-18T17:19:21;9.23;;;8.43;;
41057;SDS011;27499;48.884;2.258;2022-08-18T17:21:49;7.45;;;6.80;;
41057;SDS011;27499;48.884;2.258;2022-08-18T17:24:16;6.68;;;6.18;;
41057;SDS011;27499;48.884;2.258;2022-08-18T17:30:03;9.52;;;8.93;;
41057;SDS011;27499;48.884;2.258;2022-08-18T17:32:45;9.93;;;9.13;;
41057;SDS011;27499;48.884;2.258;2022-08-18T17:35:39;8.93;;;8.32;;
41057;SDS011;27499;48.884;2.258;2022-08-18T17:38:11;8.60;;;8.07;;
41057;SDS011;27499;48.884;2.258;2022-08-18T17:41:02;9.30;;;8.75;;
41057;SDS011;27499;48.884;2.258;2022-08-18T17:43:33;8.82;;;8.07;;
41057;SDS011;27499;48.884;2.258;2022-08-18T17:46:05;11.02;;;10.05;;